LVBMP SANT-ZZZZ
Flight info
| Callsign | LVBMP |
|---|---|
| Flight time | N/A |
| Altitude | 4000 |
| Route | DCT TCM |
| Aircraft | C208/L-SDFGRZ/C |
Departure
| Time | 2026-04-28 19:14 |
|---|---|
| Airport | Teniente Benjamín Matienzo International Airport (SANT) |
Arrival
| Time | N/A |
|---|---|
| Airport | ZZZZ |
| Time | Latitude | Longitude | Altitude | Speed | Heading |
|---|---|---|---|---|---|
| 2026-04-28 19:05 | -26.83642 | -65.10783 | 1491 ft | 0 kts | 280° |
| 2026-04-28 19:08 | -26.83641 | -65.10786 | 1593 ft | 2 kts | 314° |
| 2026-04-28 19:08 | -26.83647 | -65.10743 | 1488 ft | 13 kts | 103° |
| 2026-04-28 19:09 | -26.83578 | -65.10704 | 1482 ft | 20 kts | 9° |
| 2026-04-28 19:09 | -26.83407 | -65.10620 | 1491 ft | 34 kts | 41° |
| 2026-04-28 19:09 | -26.83214 | -65.10438 | 1487 ft | 30 kts | 40° |
| 2026-04-28 19:09 | -26.83108 | -65.10320 | 1486 ft | 14 kts | 101° |
| 2026-04-28 19:10 | -26.83136 | -65.10298 | 1491 ft | 3 kts | 188° |
| 2026-04-28 19:10 | -26.83138 | -65.10298 | 1491 ft | 0 kts | 189° |
| 2026-04-28 19:12 | -26.83213 | -65.10312 | 1491 ft | 41 kts | 190° |
| 2026-04-28 19:13 | -26.83694 | -65.10406 | 1544 ft | 91 kts | 189° |
| 2026-04-28 19:13 | -26.84174 | -65.10878 | 1717 ft | 111 kts | 256° |
| 2026-04-28 19:13 | -26.84023 | -65.11775 | 1899 ft | 130 kts | 284° |
| 2026-04-28 19:13 | -26.83749 | -65.12811 | 2059 ft | 146 kts | 283° |
| 2026-04-28 19:14 | -26.83483 | -65.13913 | 2333 ft | 144 kts | 284° |
| 2026-04-28 19:14 | -26.83261 | -65.14975 | 2720 ft | 141 kts | 281° |
| 2026-04-28 19:14 | -26.83064 | -65.16106 | 2855 ft | 153 kts | 280° |
| 2026-04-28 19:14 | -26.82887 | -65.17274 | 3150 ft | 149 kts | 279° |
| 2026-04-28 19:15 | -26.82718 | -65.18424 | 3377 ft | 150 kts | 278° |
| 2026-04-28 19:15 | -26.82586 | -65.19563 | 3642 ft | 148 kts | 277° |
| 2026-04-28 19:15 | -26.82463 | -65.20708 | 3839 ft | 152 kts | 275° |
| 2026-04-28 19:15 | -26.82386 | -65.21553 | 3616 ft | 170 kts | 276° |
| 2026-04-28 19:16 | -26.82214 | -65.23293 | 3593 ft | 166 kts | 261° |
| 2026-04-28 19:16 | -26.82659 | -65.24472 | 3545 ft | 166 kts | 242° |
| 2026-04-28 19:16 | -26.83201 | -65.25622 | 3466 ft | 166 kts | 241° |
| 2026-04-28 19:16 | -26.83659 | -65.26769 | 3543 ft | 155 kts | 252° |
| 2026-04-28 19:17 | -26.83802 | -65.27965 | 3468 ft | 159 kts | 276° |
| 2026-04-28 19:17 | -26.83248 | -65.28984 | 3249 ft | 157 kts | 332° |
| 2026-04-28 19:17 | -26.82299 | -65.29022 | 3052 ft | 127 kts | 17° |
| 2026-04-28 19:17 | -26.81513 | -65.28771 | 2957 ft | 106 kts | 16° |
| 2026-04-28 19:18 | -26.80832 | -65.28567 | 2799 ft | 99 kts | 15° |
| 2026-04-28 19:18 | -26.80182 | -65.28542 | 2551 ft | 91 kts | 332° |
| 2026-04-28 19:18 | -26.79871 | -65.29132 | 2261 ft | 90 kts | 282° |
| 2026-04-28 19:18 | -26.79789 | -65.29804 | 2035 ft | 86 kts | 278° |
| 2026-04-28 19:19 | -26.79680 | -65.30447 | 1848 ft | 83 kts | 277° |
| 2026-04-28 19:19 | -26.79595 | -65.30975 | 1896 ft | 53 kts | 282° |
| 2026-04-28 19:19 | -26.79558 | -65.31235 | 1920 ft | 26 kts | 282° |
| 2026-04-28 19:19 | -26.79537 | -65.31366 | 1919 ft | 4 kts | 278° |
| 2026-04-28 19:20 | -26.79538 | -65.31380 | 1926 ft | 3 kts | 235° |
| 2026-04-28 19:20 | -26.79557 | -65.31368 | 1921 ft | 0 kts | 103° |